sensor_id;sensor_type;location;lat;lon;timestamp;temperature;humidity
16893;DHT22;8563;52.242;9.098;2023-04-07T00:02:01;8.50;89.80
16893;DHT22;8563;52.242;9.098;2023-04-07T00:04:33;8.40;89.50
16893;DHT22;8563;52.242;9.098;2023-04-07T00:07:05;8.40;89.50
16893;DHT22;8563;52.242;9.098;2023-04-07T00:09:37;8.40;89.40
16893;DHT22;8563;52.242;9.098;2023-04-07T00:12:09;8.50;89.70
16893;DHT22;8563;52.242;9.098;2023-04-07T00:14:43;8.40;89.40
16893;DHT22;8563;52.242;9.098;2023-04-07T00:17:15;8.40;90.00
16893;DHT22;8563;52.242;9.098;2023-04-07T00:19:47;8.40;90.00
16893;DHT22;8563;52.242;9.098;2023-04-07T00:22:19;8.40;90.30
16893;DHT22;8563;52.242;9.098;2023-04-07T00:24:52;8.30;90.50
16893;DHT22;8563;52.242;9.098;2023-04-07T00:27:24;8.30;90.40
16893;DHT22;8563;52.242;9.098;2023-04-07T00:29:58;8.30;90.30
16893;DHT22;8563;52.242;9.098;2023-04-07T00:32:30;8.30;90.60
16893;DHT22;8563;52.242;9.098;2023-04-07T00:35:04;8.30;90.50
16893;DHT22;8563;52.242;9.098;2023-04-07T00:37:36;8.30;90.60
16893;DHT22;8563;52.242;9.098;2023-04-07T00:40:09;8.20;90.60
16893;DHT22;8563;52.242;9.098;2023-04-07T00:42:41;8.20;90.70
16893;DHT22;8563;52.242;9.098;2023-04-07T00:45:15;8.20;90.90
16893;DHT22;8563;52.242;9.098;2023-04-07T00:47:47;8.20;91.10
16893;DHT22;8563;52.242;9.098;2023-04-07T00:50:19;8.20;91.10
16893;DHT22;8563;52.242;9.098;2023-04-07T00:52:52;8.20;91.00
16893;DHT22;8563;52.242;9.098;2023-04-07T00:55:26;8.20;91.10
16893;DHT22;8563;52.242;9.098;2023-04-07T00:57:58;8.20;91.30
16893;DHT22;8563;52.242;9.098;2023-04-07T01:00:37;8.20;91.40
16893;DHT22;8563;52.242;9.098;2023-04-07T01:03:17;8.30;92.00
16893;DHT22;8563;52.242;9.098;2023-04-07T01:05:53;8.40;92.50
16893;DHT22;8563;52.242;9.098;2023-04-07T01:08:31;8.40;92.60
16893;DHT22;8563;52.242;9.098;2023-04-07T01:11:12;8.40;93.10
16893;DHT22;8563;52.242;9.098;2023-04-07T01:13:49;8.50;93.10
16893;DHT22;8563;52.242;9.098;2023-04-07T01:16:43;8.50;93.20
16893;DHT22;8563;52.242;9.098;2023-04-07T01:19:31;8.50;93.90
16893;DHT22;8563;52.242;9.098;2023-04-07T01:22:10;8.50;94.00
16893;DHT22;8563;52.242;9.098;2023-04-07T01:25:08;8.40;94.60
16893;DHT22;8563;52.242;9.098;2023-04-07T01:27:52;8.50;94.80
16893;DHT22;8563;52.242;9.098;2023-04-07T01:30:30;8.40;94.70
16893;DHT22;8563;52.242;9.098;2023-04-07T01:33:03;8.40;94.80
16893;DHT22;8563;52.242;9.098;2023-04-07T01:35:37;8.40;95.10
16893;DHT22;8563;52.242;9.098;2023-04-07T01:38:10;8.30;95.10
16893;DHT22;8563;52.242;9.098;2023-04-07T01:40:43;8.30;95.70
16893;DHT22;8563;52.242;9.098;2023-04-07T01:43:16;8.30;96.60
16893;DHT22;8563;52.242;9.098;2023-04-07T01:45:50;8.30;96.60
16893;DHT22;8563;52.242;9.098;2023-04-07T01:48:23;8.20;97.00
16893;DHT22;8563;52.242;9.098;2023-04-07T01:50:57;8.20;96.80
16893;DHT22;8563;52.242;9.098;2023-04-07T01:53:30;8.10;97.00
16893;DHT22;8563;52.242;9.098;2023-04-07T01:56:03;8.10;97.10
16893;DHT22;8563;52.242;9.098;2023-04-07T01:58:40;8.10;96.70
16893;DHT22;8563;52.242;9.098;2023-04-07T02:01:16;8.00;96.20
16893;DHT22;8563;52.242;9.098;2023-04-07T02:03:52;8.00;95.00
16893;DHT22;8563;52.242;9.098;2023-04-07T02:06:32;8.00;94.50
16893;DHT22;8563;52.242;9.098;2023-04-07T02:09:06;8.00;93.30
16893;DHT22;8563;52.242;9.098;2023-04-07T02:11:43;7.90;93.00
16893;DHT22;8563;52.242;9.098;2023-04-07T02:14:16;7.80;92.90
16893;DHT22;8563;52.242;9.098;2023-04-07T02:17:05;7.70;93.00
16893;DHT22;8563;52.242;9.098;2023-04-07T02:19:37;7.70;93.50
16893;DHT22;8563;52.242;9.098;2023-04-07T02:22:10;7.60;93.10
16893;DHT22;8563;52.242;9.098;2023-04-07T02:24:44;7.60;93.00
16893;DHT22;8563;52.242;9.098;2023-04-07T02:27:16;7.60;93.20
16893;DHT22;8563;52.242;9.098;2023-04-07T02:29:50;7.60;93.90
16893;DHT22;8563;52.242;9.098;2023-04-07T02:32:23;7.60;94.30
16893;DHT22;8563;52.242;9.098;2023-04-07T02:34:56;7.60;94.20
16893;DHT22;8563;52.242;9.098;2023-04-07T02:37:28;7.60;93.70
16893;DHT22;8563;52.242;9.098;2023-04-07T02:40:00;7.50;93.50
16893;DHT22;8563;52.242;9.098;2023-04-07T02:42:32;7.50;93.20
16893;DHT22;8563;52.242;9.098;2023-04-07T02:45:05;7.40;93.10
16893;DHT22;8563;52.242;9.098;2023-04-07T02:47:39;7.40;93.30
16893;DHT22;8563;52.242;9.098;2023-04-07T02:50:11;7.40;93.40
16893;DHT22;8563;52.242;9.098;2023-04-07T02:52:43;7.30;93.50
16893;DHT22;8563;52.242;9.098;2023-04-07T02:55:18;7.20;93.60
16893;DHT22;8563;52.242;9.098;2023-04-07T02:57:50;7.20;93.60
16893;DHT22;8563;52.242;9.098;2023-04-07T03:00:34;7.10;93.60
16893;DHT22;8563;52.242;9.098;2023-04-07T03:03:15;7.00;93.90
16893;DHT22;8563;52.242;9.098;2023-04-07T03:06:00;7.00;94.40
16893;DHT22;8563;52.242;9.098;2023-04-07T03:08:33;6.90;94.60
16893;DHT22;8563;52.242;9.098;2023-04-07T03:11:05;7.00;95.00
16893;DHT22;8563;52.242;9.098;2023-04-07T03:13:37;6.90;95.40
16893;DHT22;8563;52.242;9.098;2023-04-07T03:16:10;6.90;96.00
16893;DHT22;8563;52.242;9.098;2023-04-07T03:18:57;6.90;97.10
16893;DHT22;8563;52.242;9.098;2023-04-07T03:21:30;7.00;97.80
16893;DHT22;8563;52.242;9.098;2023-04-07T03:24:03;7.00;98.00
16893;DHT22;8563;52.242;9.098;2023-04-07T03:26:35;7.00;98.00
16893;DHT22;8563;52.242;9.098;2023-04-07T03:29:10;7.00;98.00
16893;DHT22;8563;52.242;9.098;2023-04-07T03:31:45;7.10;98.10
16893;DHT22;8563;52.242;9.098;2023-04-07T03:34:22;7.10;98.30
16893;DHT22;8563;52.242;9.098;2023-04-07T03:36:54;7.10;99.10
16893;DHT22;8563;52.242;9.098;2023-04-07T03:39:29;7.10;99.50
16893;DHT22;8563;52.242;9.098;2023-04-07T03:42:04;7.20;99.90
16893;DHT22;8563;52.242;9.098;2023-04-07T03:44:37;7.20;99.20
16893;DHT22;8563;52.242;9.098;2023-04-07T03:47:09;7.20;98.50
16893;DHT22;8563;52.242;9.098;2023-04-07T03:49:43;7.20;98.20
16893;DHT22;8563;52.242;9.098;2023-04-07T03:52:16;7.10;97.90
16893;DHT22;8563;52.242;9.098;2023-04-07T03:54:51;7.10;98.20
16893;DHT22;8563;52.242;9.098;2023-04-07T03:57:27;7.00;98.60
16893;DHT22;8563;52.242;9.098;2023-04-07T03:59:59;7.00;98.80
16893;DHT22;8563;52.242;9.098;2023-04-07T04:02:35;6.90;99.00
16893;DHT22;8563;52.242;9.098;2023-04-07T04:05:09;6.80;99.20
16893;DHT22;8563;52.242;9.098;2023-04-07T04:07:41;6.80;99.70
16893;DHT22;8563;52.242;9.098;2023-04-07T04:10:13;6.80;99.90
16893;DHT22;8563;52.242;9.098;2023-04-07T04:12:49;6.70;99.90
16893;DHT22;8563;52.242;9.098;2023-04-07T04:15:22;6.70;99.90
16893;DHT22;8563;52.242;9.098;2023-04-07T04:17:55;6.70;99.90
16893;DHT22;8563;52.242;9.098;2023-04-07T04:20:29;6.70;99.90
16893;DHT22;8563;52.242;9.098;2023-04-07T04:23:02;6.70;99.90
16893;DHT22;8563;52.242;9.098;2023-04-07T04:25:34;6.70;99.90
16893;DHT22;8563;52.242;9.098;2023-04-07T04:28:11;6.70;99.90
16893;DHT22;8563;52.242;9.098;2023-04-07T04:30:44;6.70;99.90
16893;DHT22;8563;52.242;9.098;2023-04-07T04:33:16;6.60;99.90
16893;DHT22;8563;52.242;9.098;2023-04-07T04:35:58;6.60;99.90
16893;DHT22;8563;52.242;9.098;2023-04-07T04:38:31;6.50;99.90
16893;DHT22;8563;52.242;9.098;2023-04-07T04:41:22;6.50;99.90
16893;DHT22;8563;52.242;9.098;2023-04-07T04:43:55;6.60;99.90
16893;DHT22;8563;52.242;9.098;2023-04-07T04:46:30;6.50;99.90
16893;DHT22;8563;52.242;9.098;2023-04-07T04:49:02;6.50;99.90
16893;DHT22;8563;52.242;9.098;2023-04-07T04:51:37;6.50;99.90
16893;DHT22;8563;52.242;9.098;2023-04-07T04:54:18;6.50;99.90
16893;DHT22;8563;52.242;9.098;2023-04-07T04:56:50;6.40;99.90
16893;DHT22;8563;52.242;9.098;2023-04-07T04:59:23;6.50;99.90
16893;DHT22;8563;52.242;9.098;2023-04-07T05:02:06;6.50;99.90
16893;DHT22;8563;52.242;9.098;2023-04-07T05:04:39;6.50;99.90
16893;DHT22;8563;52.242;9.098;2023-04-07T05:07:26;6.40;99.90
16893;DHT22;8563;52.242;9.098;2023-04-07T05:10:00;6.40;99.90
16893;DHT22;8563;52.242;9.098;2023-04-07T05:12:35;6.40;99.90
16893;DHT22;8563;52.242;9.098;2023-04-07T05:15:07;6.40;99.90
16893;DHT22;8563;52.242;9.098;2023-04-07T05:17:40;6.40;99.90
16893;DHT22;8563;52.242;9.098;2023-04-07T05:20:16;6.40;99.90
16893;DHT22;8563;52.242;9.098;2023-04-07T05:22:50;6.50;99.90
16893;DHT22;8563;52.242;9.098;2023-04-07T05:25:26;6.50;99.90
16893;DHT22;8563;52.242;9.098;2023-04-07T05:28:02;6.70;99.90
16893;DHT22;8563;52.242;9.098;2023-04-07T05:30:35;6.80;99.90
16893;DHT22;8563;52.242;9.098;2023-04-07T05:33:08;6.80;99.90
16893;DHT22;8563;52.242;9.098;2023-04-07T05:35:46;6.90;99.90
16893;DHT22;8563;52.242;9.098;2023-04-07T05:38:21;7.10;99.90
16893;DHT22;8563;52.242;9.098;2023-04-07T05:40:54;7.20;99.90
16893;DHT22;8563;52.242;9.098;2023-04-07T05:43:33;7.30;99.50
16893;DHT22;8563;52.242;9.098;2023-04-07T05:46:06;7.40;98.20
16893;DHT22;8563;52.242;9.098;2023-04-07T05:48:43;7.60;97.00
16893;DHT22;8563;52.242;9.098;2023-04-07T05:51:17;7.80;95.10
16893;DHT22;8563;52.242;9.098;2023-04-07T05:53:50;8.00;94.40
16893;DHT22;8563;52.242;9.098;2023-04-07T05:56:25;8.10;93.80
16893;DHT22;8563;52.242;9.098;2023-04-07T05:58:58;8.30;93.40
16893;DHT22;8563;52.242;9.098;2023-04-07T06:01:31;8.40;92.90
16893;DHT22;8563;52.242;9.098;2023-04-07T06:04:04;8.50;92.20
16893;DHT22;8563;52.242;9.098;2023-04-07T06:06:36;8.70;91.70
16893;DHT22;8563;52.242;9.098;2023-04-07T06:09:09;9.00;91.50
16893;DHT22;8563;52.242;9.098;2023-04-07T06:11:41;9.30;90.50
16893;DHT22;8563;52.242;9.098;2023-04-07T06:14:14;9.50;89.30
16893;DHT22;8563;52.242;9.098;2023-04-07T06:16:46;9.60;88.10
16893;DHT22;8563;52.242;9.098;2023-04-07T06:19:18;9.70;88.00
16893;DHT22;8563;52.242;9.098;2023-04-07T06:21:50;9.70;88.00
16893;DHT22;8563;52.242;9.098;2023-04-07T06:24:24;9.70;87.70
16893;DHT22;8563;52.242;9.098;2023-04-07T06:26:56;9.60;87.50
16893;DHT22;8563;52.242;9.098;2023-04-07T06:29:28;9.50;88.20
16893;DHT22;8563;52.242;9.098;2023-04-07T06:32:00;9.50;88.20
16893;DHT22;8563;52.242;9.098;2023-04-07T06:34:32;9.60;87.80
16893;DHT22;8563;52.242;9.098;2023-04-07T06:37:04;9.70;87.00
16893;DHT22;8563;52.242;9.098;2023-04-07T06:39:39;9.70;87.20
16893;DHT22;8563;52.242;9.098;2023-04-07T06:42:11;9.60;87.30
16893;DHT22;8563;52.242;9.098;2023-04-07T06:44:53;9.80;86.60
16893;DHT22;8563;52.242;9.098;2023-04-07T06:47:25;9.90;87.30
16893;DHT22;8563;52.242;9.098;2023-04-07T06:49:57;9.90;86.90
16893;DHT22;8563;52.242;9.098;2023-04-07T06:52:29;9.90;87.20
16893;DHT22;8563;52.242;9.098;2023-04-07T06:55:04;9.70;87.70
16893;DHT22;8563;52.242;9.098;2023-04-07T06:57:37;9.60;89.00
16893;DHT22;8563;52.242;9.098;2023-04-07T07:00:10;9.50;89.40
16893;DHT22;8563;52.242;9.098;2023-04-07T07:02:42;9.50;90.00
16893;DHT22;8563;52.242;9.098;2023-04-07T07:05:14;9.50;89.90
16893;DHT22;8563;52.242;9.098;2023-04-07T07:07:48;9.50;90.00
16893;DHT22;8563;52.242;9.098;2023-04-07T07:10:22;9.60;90.20
16893;DHT22;8563;52.242;9.098;2023-04-07T07:12:54;9.60;90.60
16893;DHT22;8563;52.242;9.098;2023-04-07T07:15:26;9.60;91.10
16893;DHT22;8563;52.242;9.098;2023-04-07T07:17:58;9.60;91.20
16893;DHT22;8563;52.242;9.098;2023-04-07T07:20:31;9.60;91.30
16893;DHT22;8563;52.242;9.098;2023-04-07T07:23:03;9.60;91.60
16893;DHT22;8563;52.242;9.098;2023-04-07T07:25:37;9.60;91.90
16893;DHT22;8563;52.242;9.098;2023-04-07T07:28:09;9.60;92.60
16893;DHT22;8563;52.242;9.098;2023-04-07T07:30:41;9.60;92.40
16893;DHT22;8563;52.242;9.098;2023-04-07T07:33:13;9.60;92.50
16893;DHT22;8563;52.242;9.098;2023-04-07T07:35:45;9.50;93.00
16893;DHT22;8563;52.242;9.098;2023-04-07T07:38:18;9.60;92.80
16893;DHT22;8563;52.242;9.098;2023-04-07T07:40:51;9.50;92.70
16893;DHT22;8563;52.242;9.098;2023-04-07T07:43:24;9.50;92.90
16893;DHT22;8563;52.242;9.098;2023-04-07T07:45:56;9.40;93.30
16893;DHT22;8563;52.242;9.098;2023-04-07T07:48:28;9.50;93.40
16893;DHT22;8563;52.242;9.098;2023-04-07T07:51:00;9.50;92.80
16893;DHT22;8563;52.242;9.098;2023-04-07T07:53:32;9.60;92.90
16893;DHT22;8563;52.242;9.098;2023-04-07T07:56:06;9.60;92.90
16893;DHT22;8563;52.242;9.098;2023-04-07T07:58:38;9.80;93.60
16893;DHT22;8563;52.242;9.098;2023-04-07T08:01:10;10.00;93.20
16893;DHT22;8563;52.242;9.098;2023-04-07T08:03:42;10.10;93.00
16893;DHT22;8563;52.242;9.098;2023-04-07T08:06:15;10.20;92.00
16893;DHT22;8563;52.242;9.098;2023-04-07T08:08:47;10.20;92.40
16893;DHT22;8563;52.242;9.098;2023-04-07T08:11:21;10.20;91.90
16893;DHT22;8563;52.242;9.098;2023-04-07T08:13:53;10.40;91.90
16893;DHT22;8563;52.242;9.098;2023-04-07T08:16:25;10.40;91.60
16893;DHT22;8563;52.242;9.098;2023-04-07T08:18:57;10.40;92.40
16893;DHT22;8563;52.242;9.098;2023-04-07T08:21:29;10.60;91.70
16893;DHT22;8563;52.242;9.098;2023-04-07T08:24:02;10.60;91.60
16893;DHT22;8563;52.242;9.098;2023-04-07T08:26:35;10.70;91.10
16893;DHT22;8563;52.242;9.098;2023-04-07T08:29:08;10.90;91.60
16893;DHT22;8563;52.242;9.098;2023-04-07T08:31:40;10.90;90.30
16893;DHT22;8563;52.242;9.098;2023-04-07T08:34:12;10.90;90.40
16893;DHT22;8563;52.242;9.098;2023-04-07T08:36:44;11.00;90.40
16893;DHT22;8563;52.242;9.098;2023-04-07T08:39:16;10.90;88.90
16893;DHT22;8563;52.242;9.098;2023-04-07T08:41:50;11.00;88.90
16893;DHT22;8563;52.242;9.098;2023-04-07T08:44:25;10.90;89.10
16893;DHT22;8563;52.242;9.098;2023-04-07T08:47:00;10.80;89.30
16893;DHT22;8563;52.242;9.098;2023-04-07T08:49:35;10.70;89.50
16893;DHT22;8563;52.242;9.098;2023-04-07T08:52:11;10.80;89.20
16893;DHT22;8563;52.242;9.098;2023-04-07T08:54:44;10.90;89.20
16893;DHT22;8563;52.242;9.098;2023-04-07T08:57:17;11.10;87.60
16893;DHT22;8563;52.242;9.098;2023-04-07T08:59:49;11.00;87.60
16893;DHT22;8563;52.242;9.098;2023-04-07T09:02:22;11.00;89.10
16893;DHT22;8563;52.242;9.098;2023-04-07T09:04:54;11.20;91.30
16893;DHT22;8563;52.242;9.098;2023-04-07T09:07:27;11.30;86.80
16893;DHT22;8563;52.242;9.098;2023-04-07T09:09:59;11.30;88.50
16893;DHT22;8563;52.242;9.098;2023-04-07T09:12:33;11.50;89.70
16893;DHT22;8563;52.242;9.098;2023-04-07T09:15:06;11.60;87.30
16893;DHT22;8563;52.242;9.098;2023-04-07T09:17:39;11.70;84.70
16893;DHT22;8563;52.242;9.098;2023-04-07T09:20:11;11.70;85.60
16893;DHT22;8563;52.242;9.098;2023-04-07T09:22:44;11.90;85.20
16893;DHT22;8563;52.242;9.098;2023-04-07T09:25:17;12.10;84.80
16893;DHT22;8563;52.242;9.098;2023-04-07T09:27:58;12.20;81.30
16893;DHT22;8563;52.242;9.098;2023-04-07T09:30:31;12.30;83.00
16893;DHT22;8563;52.242;9.098;2023-04-07T09:33:04;12.50;83.30
16893;DHT22;8563;52.242;9.098;2023-04-07T09:35:50;12.70;82.00
16893;DHT22;8563;52.242;9.098;2023-04-07T09:38:32;12.80;78.10
16893;DHT22;8563;52.242;9.098;2023-04-07T09:41:05;12.60;76.90
16893;DHT22;8563;52.242;9.098;2023-04-07T09:43:41;12.60;77.10
16893;DHT22;8563;52.242;9.098;2023-04-07T09:46:15;12.40;76.50
16893;DHT22;8563;52.242;9.098;2023-04-07T09:49:00;12.20;78.00
16893;DHT22;8563;52.242;9.098;2023-04-07T09:51:34;12.30;78.00
16893;DHT22;8563;52.242;9.098;2023-04-07T09:54:07;12.40;76.80
16893;DHT22;8563;52.242;9.098;2023-04-07T09:56:40;12.60;78.30
16893;DHT22;8563;52.242;9.098;2023-04-07T09:59:15;12.60;76.90
16893;DHT22;8563;52.242;9.098;2023-04-07T10:01:47;12.80;79.50
16893;DHT22;8563;52.242;9.098;2023-04-07T10:04:19;12.80;77.20
16893;DHT22;8563;52.242;9.098;2023-04-07T10:06:52;12.80;76.80
16893;DHT22;8563;52.242;9.098;2023-04-07T10:09:26;12.60;74.50
16893;DHT22;8563;52.242;9.098;2023-04-07T10:11:59;12.60;75.30
16893;DHT22;8563;52.242;9.098;2023-04-07T10:14:32;12.70;75.70
16893;DHT22;8563;52.242;9.098;2023-04-07T10:17:06;12.90;75.00
16893;DHT22;8563;52.242;9.098;2023-04-07T10:19:39;12.90;74.00
16893;DHT22;8563;52.242;9.098;2023-04-07T10:22:12;13.00;75.90
16893;DHT22;8563;52.242;9.098;2023-04-07T10:24:50;13.10;74.60
16893;DHT22;8563;52.242;9.098;2023-04-07T10:27:29;13.10;74.50
16893;DHT22;8563;52.242;9.098;2023-04-07T10:30:10;13.20;74.60
16893;DHT22;8563;52.242;9.098;2023-04-07T10:32:46;13.20;74.30
16893;DHT22;8563;52.242;9.098;2023-04-07T10:35:19;13.20;73.10
16893;DHT22;8563;52.242;9.098;2023-04-07T10:38:11;13.30;73.60
16893;DHT22;8563;52.242;9.098;2023-04-07T10:40:44;13.10;71.70
16893;DHT22;8563;52.242;9.098;2023-04-07T10:43:36;13.10;73.10
16893;DHT22;8563;52.242;9.098;2023-04-07T10:46:11;13.20;71.60
16893;DHT22;8563;52.242;9.098;2023-04-07T10:49:09;13.20;70.70
16893;DHT22;8563;52.242;9.098;2023-04-07T10:51:41;13.10;70.90
16893;DHT22;8563;52.242;9.098;2023-04-07T10:54:18;12.90;71.90
16893;DHT22;8563;52.242;9.098;2023-04-07T10:57:08;12.80;72.00
16893;DHT22;8563;52.242;9.098;2023-04-07T11:00:13;12.70;71.00
16893;DHT22;8563;52.242;9.098;2023-04-07T11:02:47;12.70;69.70
16893;DHT22;8563;52.242;9.098;2023-04-07T11:05:20;12.80;71.20
16893;DHT22;8563;52.242;9.098;2023-04-07T11:07:53;12.80;70.30
16893;DHT22;8563;52.242;9.098;2023-04-07T11:10:27;12.90;70.90
16893;DHT22;8563;52.242;9.098;2023-04-07T11:13:01;13.10;70.00
16893;DHT22;8563;52.242;9.098;2023-04-07T11:15:34;12.90;67.60
16893;DHT22;8563;52.242;9.098;2023-04-07T11:18:13;12.90;68.60
16893;DHT22;8563;52.242;9.098;2023-04-07T11:20:51;13.00;69.30
16893;DHT22;8563;52.242;9.098;2023-04-07T11:23:24;13.10;68.00
16893;DHT22;8563;52.242;9.098;2023-04-07T11:25:59;13.10;69.20
16893;DHT22;8563;52.242;9.098;2023-04-07T11:28:32;13.10;67.20
16893;DHT22;8563;52.242;9.098;2023-04-07T11:31:04;13.30;69.70
16893;DHT22;8563;52.242;9.098;2023-04-07T11:33:38;13.40;66.60
16893;DHT22;8563;52.242;9.098;2023-04-07T11:36:12;13.50;67.10
16893;DHT22;8563;52.242;9.098;2023-04-07T11:38:44;13.40;65.80
16893;DHT22;8563;52.242;9.098;2023-04-07T11:41:16;13.40;66.80
16893;DHT22;8563;52.242;9.098;2023-04-07T11:43:49;13.40;64.90
16893;DHT22;8563;52.242;9.098;2023-04-07T11:46:34;13.40;64.90
16893;DHT22;8563;52.242;9.098;2023-04-07T11:49:13;13.50;62.70
16893;DHT22;8563;52.242;9.098;2023-04-07T11:51:46;13.50;62.60
16893;DHT22;8563;52.242;9.098;2023-04-07T11:54:18;13.50;62.50
16893;DHT22;8563;52.242;9.098;2023-04-07T11:56:51;13.50;62.60
16893;DHT22;8563;52.242;9.098;2023-04-07T11:59:25;13.50;61.90
16893;DHT22;8563;52.242;9.098;2023-04-07T12:01:58;13.60;61.20
16893;DHT22;8563;52.242;9.098;2023-04-07T12:04:32;13.40;60.90
16893;DHT22;8563;52.242;9.098;2023-04-07T12:07:07;13.20;61.10
16893;DHT22;8563;52.242;9.098;2023-04-07T12:09:39;13.10;61.40
16893;DHT22;8563;52.242;9.098;2023-04-07T12:12:11;13.30;61.60
16893;DHT22;8563;52.242;9.098;2023-04-07T12:14:44;13.20;61.20
16893;DHT22;8563;52.242;9.098;2023-04-07T12:17:20;13.30;61.70
16893;DHT22;8563;52.242;9.098;2023-04-07T12:19:53;13.30;62.00
16893;DHT22;8563;52.242;9.098;2023-04-07T12:22:25;13.40;62.10
16893;DHT22;8563;52.242;9.098;2023-04-07T12:24:58;13.20;61.10
16893;DHT22;8563;52.242;9.098;2023-04-07T12:27:30;13.20;61.60
16893;DHT22;8563;52.242;9.098;2023-04-07T12:30:02;13.30;63.60
16893;DHT22;8563;52.242;9.098;2023-04-07T12:32:34;13.40;61.60
16893;DHT22;8563;52.242;9.098;2023-04-07T12:35:09;13.50;61.40
16893;DHT22;8563;52.242;9.098;2023-04-07T12:37:41;13.60;62.10
16893;DHT22;8563;52.242;9.098;2023-04-07T12:40:13;13.50;60.80
16893;DHT22;8563;52.242;9.098;2023-04-07T12:42:46;13.50;62.30
16893;DHT22;8563;52.242;9.098;2023-04-07T12:45:18;13.50;61.70
16893;DHT22;8563;52.242;9.098;2023-04-07T12:47:50;13.40;61.10
16893;DHT22;8563;52.242;9.098;2023-04-07T12:50:23;13.40;60.90
16893;DHT22;8563;52.242;9.098;2023-04-07T12:52:56;13.40;60.60
16893;DHT22;8563;52.242;9.098;2023-04-07T12:55:33;13.50;59.80
16893;DHT22;8563;52.242;9.098;2023-04-07T12:58:06;13.50;62.80
16893;DHT22;8563;52.242;9.098;2023-04-07T13:00:38;13.40;58.70
16893;DHT22;8563;52.242;9.098;2023-04-07T13:03:11;13.40;59.50
16893;DHT22;8563;52.242;9.098;2023-04-07T13:05:45;13.40;59.30
16893;DHT22;8563;52.242;9.098;2023-04-07T13:08:18;13.50;59.00
16893;DHT22;8563;52.242;9.098;2023-04-07T13:10:51;13.40;59.70
16893;DHT22;8563;52.242;9.098;2023-04-07T13:13:23;13.60;59.90
16893;DHT22;8563;52.242;9.098;2023-04-07T13:15:55;13.50;59.30
16893;DHT22;8563;52.242;9.098;2023-04-07T13:18:27;13.50;58.60
16893;DHT22;8563;52.242;9.098;2023-04-07T13:21:01;13.40;58.70
16893;DHT22;8563;52.242;9.098;2023-04-07T13:23:33;13.50;59.70
16893;DHT22;8563;52.242;9.098;2023-04-07T13:26:06;13.50;59.10
16893;DHT22;8563;52.242;9.098;2023-04-07T13:28:38;13.60;59.50
16893;DHT22;8563;52.242;9.098;2023-04-07T13:31:10;13.50;57.70
16893;DHT22;8563;52.242;9.098;2023-04-07T13:33:45;13.40;58.60
16893;DHT22;8563;52.242;9.098;2023-04-07T13:36:18;13.50;59.00
16893;DHT22;8563;52.242;9.098;2023-04-07T13:38:50;13.60;58.40
16893;DHT22;8563;52.242;9.098;2023-04-07T13:41:23;13.60;58.50
16893;DHT22;8563;52.242;9.098;2023-04-07T13:43:56;13.60;58.40
16893;DHT22;8563;52.242;9.098;2023-04-07T13:46:28;13.50;59.00
16893;DHT22;8563;52.242;9.098;2023-04-07T13:49:00;13.50;58.30
16893;DHT22;8563;52.242;9.098;2023-04-07T13:51:34;13.60;58.30
16893;DHT22;8563;52.242;9.098;2023-04-07T13:54:07;13.60;58.60
16893;DHT22;8563;52.242;9.098;2023-04-07T13:56:39;13.60;58.00
16893;DHT22;8563;52.242;9.098;2023-04-07T13:59:12;13.50;59.30
16893;DHT22;8563;52.242;9.098;2023-04-07T14:01:44;13.40;58.30
16893;DHT22;8563;52.242;9.098;2023-04-07T14:04:16;13.30;57.70
16893;DHT22;8563;52.242;9.098;2023-04-07T14:06:50;13.20;58.20
16893;DHT22;8563;52.242;9.098;2023-04-07T14:09:22;13.20;58.90
16893;DHT22;8563;52.242;9.098;2023-04-07T14:11:54;13.40;58.70
16893;DHT22;8563;52.242;9.098;2023-04-07T14:14:27;13.50;59.90
16893;DHT22;8563;52.242;9.098;2023-04-07T14:16:59;13.60;59.10
16893;DHT22;8563;52.242;9.098;2023-04-07T14:19:31;13.60;57.80
16893;DHT22;8563;52.242;9.098;2023-04-07T14:22:06;13.60;58.20
16893;DHT22;8563;52.242;9.098;2023-04-07T14:24:38;13.50;59.10
16893;DHT22;8563;52.242;9.098;2023-04-07T14:27:10;13.60;59.00
16893;DHT22;8563;52.242;9.098;2023-04-07T14:29:43;13.70;59.10
16893;DHT22;8563;52.242;9.098;2023-04-07T14:32:15;13.60;58.20
16893;DHT22;8563;52.242;9.098;2023-04-07T14:34:48;13.50;58.00
16893;DHT22;8563;52.242;9.098;2023-04-07T14:37:21;13.40;58.70
16893;DHT22;8563;52.242;9.098;2023-04-07T14:39:56;13.40;58.60
16893;DHT22;8563;52.242;9.098;2023-04-07T14:42:28;13.40;59.80
16893;DHT22;8563;52.242;9.098;2023-04-07T14:45:00;13.50;58.40
16893;DHT22;8563;52.242;9.098;2023-04-07T14:47:32;13.40;59.00
16893;DHT22;8563;52.242;9.098;2023-04-07T14:50:05;13.50;58.80
16893;DHT22;8563;52.242;9.098;2023-04-07T14:52:39;13.40;58.00
16893;DHT22;8563;52.242;9.098;2023-04-07T14:55:11;13.50;58.80
16893;DHT22;8563;52.242;9.098;2023-04-07T14:57:43;13.50;58.90
16893;DHT22;8563;52.242;9.098;2023-04-07T15:00:16;13.60;59.80
16893;DHT22;8563;52.242;9.098;2023-04-07T15:02:48;13.50;58.20
16893;DHT22;8563;52.242;9.098;2023-04-07T15:05:20;13.50;58.10
16893;DHT22;8563;52.242;9.098;2023-04-07T15:07:54;13.50;58.40
16893;DHT22;8563;52.242;9.098;2023-04-07T15:10:27;13.50;58.90
16893;DHT22;8563;52.242;9.098;2023-04-07T15:12:59;13.50;57.90
16893;DHT22;8563;52.242;9.098;2023-04-07T15:15:31;13.50;58.00
16893;DHT22;8563;52.242;9.098;2023-04-07T15:18:04;13.50;59.10
16893;DHT22;8563;52.242;9.098;2023-04-07T15:20:36;13.50;59.20
16893;DHT22;8563;52.242;9.098;2023-04-07T15:23:09;13.50;58.90
16893;DHT22;8563;52.242;9.098;2023-04-07T15:25:44;13.40;57.10
16893;DHT22;8563;52.242;9.098;2023-04-07T15:28:21;13.30;58.80
16893;DHT22;8563;52.242;9.098;2023-04-07T15:30:53;13.40;58.90
16893;DHT22;8563;52.242;9.098;2023-04-07T15:33:25;13.30;58.40
16893;DHT22;8563;52.242;9.098;2023-04-07T15:35:57;13.30;58.80
16893;DHT22;8563;52.242;9.098;2023-04-07T15:38:32;13.30;60.20
16893;DHT22;8563;52.242;9.098;2023-04-07T15:41:04;13.30;58.50
16893;DHT22;8563;52.242;9.098;2023-04-07T15:43:37;13.20;58.60
16893;DHT22;8563;52.242;9.098;2023-04-07T15:46:09;13.10;59.10
16893;DHT22;8563;52.242;9.098;2023-04-07T15:48:41;13.10;59.30
16893;DHT22;8563;52.242;9.098;2023-04-07T15:51:13;13.10;59.30
16893;DHT22;8563;52.242;9.098;2023-04-07T15:53:47;13.10;58.40
16893;DHT22;8563;52.242;9.098;2023-04-07T15:56:19;13.10;58.10
16893;DHT22;8563;52.242;9.098;2023-04-07T15:58:54;13.10;58.60
16893;DHT22;8563;52.242;9.098;2023-04-07T16:01:26;13.10;58.20
16893;DHT22;8563;52.242;9.098;2023-04-07T16:03:59;13.10;58.60
16893;DHT22;8563;52.242;9.098;2023-04-07T16:06:31;13.10;58.60
16893;DHT22;8563;52.242;9.098;2023-04-07T16:09:05;13.00;58.70
16893;DHT22;8563;52.242;9.098;2023-04-07T16:11:37;13.00;58.80
16893;DHT22;8563;52.242;9.098;2023-04-07T16:14:09;12.90;58.60
16893;DHT22;8563;52.242;9.098;2023-04-07T16:16:41;12.90;58.30
16893;DHT22;8563;52.242;9.098;2023-04-07T16:19:14;12.90;59.00
16893;DHT22;8563;52.242;9.098;2023-04-07T16:21:46;12.80;58.70
16893;DHT22;8563;52.242;9.098;2023-04-07T16:24:19;12.80;58.80
16893;DHT22;8563;52.242;9.098;2023-04-07T16:26:52;12.70;59.00
16893;DHT22;8563;52.242;9.098;2023-04-07T16:29:25;12.70;59.30
16893;DHT22;8563;52.242;9.098;2023-04-07T16:31:57;12.70;59.20
16893;DHT22;8563;52.242;9.098;2023-04-07T16:34:30;12.70;60.00
16893;DHT22;8563;52.242;9.098;2023-04-07T16:37:02;12.70;59.10